sensor_id;sensor_type;location;lat;lon;timestamp;pressure;altitude;pressure_sealevel;temperature;humidity
7940;BME280;4015;48.888;9.226;2023-04-16T00:01:29;157228.41;;;7.89;100.00
7940;BME280;4015;48.888;9.226;2023-04-16T00:03:55;157230.97;;;7.90;100.00
7940;BME280;4015;48.888;9.226;2023-04-16T00:06:21;157245.00;;;7.96;100.00
7940;BME280;4015;48.888;9.226;2023-04-16T00:08:47;157243.72;;;7.95;100.00
7940;BME280;4015;48.888;9.226;2023-04-16T00:11:12;157248.81;;;7.97;100.00
7940;BME280;4015;48.888;9.226;2023-04-16T00:13:37;157246.25;;;7.96;100.00
7940;BME280;4015;48.888;9.226;2023-04-16T00:16:03;157256.47;;;8.00;100.00
7940;BME280;4015;48.888;9.226;2023-04-16T00:18:28;157237.34;;;7.93;100.00
7940;BME280;4015;48.888;9.226;2023-04-16T00:20:54;157242.44;;;7.95;100.00
7940;BME280;4015;48.888;9.226;2023-04-16T00:23:19;157230.97;;;7.90;100.00
7940;BME280;4015;48.888;9.226;2023-04-16T00:25:45;157241.19;;;7.94;100.00
7940;BME280;4015;48.888;9.226;2023-04-16T00:28:10;157237.34;;;7.93;100.00
7940;BME280;4015;48.888;9.226;2023-04-16T00:30:36;157253.94;;;7.99;100.00
7940;BME280;4015;48.888;9.226;2023-04-16T00:33:01;157248.81;;;7.97;100.00
7940;BME280;4015;48.888;9.226;2023-04-16T00:35:28;157243.72;;;7.95;100.00
7940;BME280;4015;48.888;9.226;2023-04-16T00:37:54;157247.53;;;7.97;100.00
7940;BME280;4015;48.888;9.226;2023-04-16T00:40:20;157236.09;;;7.92;100.00
7940;BME280;4015;48.888;9.226;2023-04-16T00:42:45;157237.34;;;7.93;100.00
7940;BME280;4015;48.888;9.226;2023-04-16T00:45:10;157242.44;;;7.95;100.00
7940;BME280;4015;48.888;9.226;2023-04-16T00:47:36;157233.50;;;7.91;100.00
7940;BME280;4015;48.888;9.226;2023-04-16T00:50:02;157232.22;;;7.91;100.00
7940;BME280;4015;48.888;9.226;2023-04-16T00:52:30;157227.16;;;7.89;100.00
7940;BME280;4015;48.888;9.226;2023-04-16T00:54:57;157239.91;;;7.94;100.00
7940;BME280;4015;48.888;9.226;2023-04-16T00:57:22;157234.78;;;7.92;100.00
7940;BME280;4015;48.888;9.226;2023-04-16T00:59:48;157233.50;;;7.91;100.00
7940;BME280;4015;48.888;9.226;2023-04-16T01:02:13;157250.06;;;7.98;100.00
7940;BME280;4015;48.888;9.226;2023-04-16T01:04:39;157234.78;;;7.92;100.00
7940;BME280;4015;48.888;9.226;2023-04-16T01:07:05;157242.44;;;7.95;100.00
7940;BME280;4015;48.888;9.226;2023-04-16T01:09:30;157227.16;;;7.89;100.00
7940;BME280;4015;48.888;9.226;2023-04-16T01:11:55;157237.34;;;7.93;100.00
7940;BME280;4015;48.888;9.226;2023-04-16T01:14:21;157245.00;;;7.96;100.00
7940;BME280;4015;48.888;9.226;2023-04-16T01:16:46;157241.19;;;7.94;100.00
7940;BME280;4015;48.888;9.226;2023-04-16T01:19:11;157259.03;;;8.01;100.00
7940;BME280;4015;48.888;9.226;2023-04-16T01:21:37;157265.38;;;8.04;100.00
7940;BME280;4015;48.888;9.226;2023-04-16T01:24:03;157267.97;;;8.05;100.00
7940;BME280;4015;48.888;9.226;2023-04-16T01:26:29;157275.59;;;8.08;100.00
7940;BME280;4015;48.888;9.226;2023-04-16T01:28:54;157274.31;;;8.07;100.00
7940;BME280;4015;48.888;9.226;2023-04-16T01:31:19;157264.09;;;8.03;100.00
7940;BME280;4015;48.888;9.226;2023-04-16T01:33:45;157261.56;;;8.02;100.00
7940;BME280;4015;48.888;9.226;2023-04-16T01:36:10;157265.38;;;8.04;100.00
7940;BME280;4015;48.888;9.226;2023-04-16T01:38:35;157259.03;;;8.01;100.00
7940;BME280;4015;48.888;9.226;2023-04-16T01:41:01;157262.84;;;8.03;100.00
7940;BME280;4015;48.888;9.226;2023-04-16T01:43:26;157265.38;;;8.04;100.00
7940;BME280;4015;48.888;9.226;2023-04-16T01:46:07;157251.38;;;7.98;100.00
7940;BME280;4015;48.888;9.226;2023-04-16T01:48:34;157248.81;;;7.97;100.00
7940;BME280;4015;48.888;9.226;2023-04-16T01:51:00;157239.91;;;7.94;100.00
7940;BME280;4015;48.888;9.226;2023-04-16T01:53:25;157259.03;;;8.01;100.00
7940;BME280;4015;48.888;9.226;2023-04-16T01:55:50;157253.94;;;7.99;100.00
7940;BME280;4015;48.888;9.226;2023-04-16T01:58:16;157236.09;;;7.92;100.00
7940;BME280;4015;48.888;9.226;2023-04-16T02:00:41;157236.09;;;7.92;100.00
7940;BME280;4015;48.888;9.226;2023-04-16T02:03:06;157238.63;;;7.93;100.00
7940;BME280;4015;48.888;9.226;2023-04-16T02:05:32;157246.25;;;7.96;100.00
7940;BME280;4015;48.888;9.226;2023-04-16T02:07:57;157257.75;;;8.01;100.00
7940;BME280;4015;48.888;9.226;2023-04-16T02:10:22;157246.25;;;7.96;100.00
7940;BME280;4015;48.888;9.226;2023-04-16T02:12:48;157250.06;;;7.98;100.00
7940;BME280;4015;48.888;9.226;2023-04-16T02:15:13;157259.03;;;8.01;100.00
7940;BME280;4015;48.888;9.226;2023-04-16T02:17:40;157265.38;;;8.04;100.00
7940;BME280;4015;48.888;9.226;2023-04-16T02:20:06;157262.84;;;8.03;100.00
7940;BME280;4015;48.888;9.226;2023-04-16T02:22:33;157247.53;;;7.97;100.00
7940;BME280;4015;48.888;9.226;2023-04-16T02:24:58;157242.44;;;7.95;100.00
7940;BME280;4015;48.888;9.226;2023-04-16T02:27:24;157260.28;;;8.02;100.00
7940;BME280;4015;48.888;9.226;2023-04-16T02:29:50;157253.94;;;7.99;100.00
7940;BME280;4015;48.888;9.226;2023-04-16T02:32:15;157265.38;;;8.04;100.00
7940;BME280;4015;48.888;9.226;2023-04-16T02:34:40;157264.09;;;8.03;100.00
7940;BME280;4015;48.888;9.226;2023-04-16T02:37:07;157242.44;;;7.95;100.00
7940;BME280;4015;48.888;9.226;2023-04-16T02:39:32;157241.19;;;7.94;100.00
7940;BME280;4015;48.888;9.226;2023-04-16T02:41:57;157227.16;;;7.89;100.00
7940;BME280;4015;48.888;9.226;2023-04-16T02:44:23;157232.22;;;7.91;100.00
7940;BME280;4015;48.888;9.226;2023-04-16T02:46:49;157209.28;;;7.81;100.00
7940;BME280;4015;48.888;9.226;2023-04-16T02:49:14;157218.19;;;7.85;100.00
7940;BME280;4015;48.888;9.226;2023-04-16T02:51:39;157238.63;;;7.93;100.00
7940;BME280;4015;48.888;9.226;2023-04-16T02:54:05;157229.69;;;7.90;100.00
7940;BME280;4015;48.888;9.226;2023-04-16T02:56:30;157262.84;;;8.03;100.00
7940;BME280;4015;48.888;9.226;2023-04-16T02:58:55;157275.59;;;8.08;100.00
7940;BME280;4015;48.888;9.226;2023-04-16T03:01:20;157271.78;;;8.06;100.00
7940;BME280;4015;48.888;9.226;2023-04-16T03:03:46;157241.19;;;7.94;100.00
7940;BME280;4015;48.888;9.226;2023-04-16T03:06:11;157234.78;;;7.92;100.00
7940;BME280;4015;48.888;9.226;2023-04-16T03:08:36;157237.34;;;7.93;100.00
7940;BME280;4015;48.888;9.226;2023-04-16T03:11:02;157257.75;;;8.01;100.00
7940;BME280;4015;48.888;9.226;2023-04-16T03:13:27;157260.28;;;8.02;100.00
7940;BME280;4015;48.888;9.226;2023-04-16T03:15:52;157260.28;;;8.02;100.00
7940;BME280;4015;48.888;9.226;2023-04-16T03:18:18;157237.34;;;7.93;100.00
7940;BME280;4015;48.888;9.226;2023-04-16T03:20:43;157225.88;;;7.88;100.00
7940;BME280;4015;48.888;9.226;2023-04-16T03:23:08;157234.78;;;7.92;100.00
7940;BME280;4015;48.888;9.226;2023-04-16T03:25:34;157225.88;;;7.88;100.00
7940;BME280;4015;48.888;9.226;2023-04-16T03:27:59;157241.19;;;7.94;100.00
7940;BME280;4015;48.888;9.226;2023-04-16T03:30:25;157243.72;;;7.95;100.00
7940;BME280;4015;48.888;9.226;2023-04-16T03:32:50;157241.19;;;7.94;100.00
7940;BME280;4015;48.888;9.226;2023-04-16T03:35:16;157247.53;;;7.97;100.00
7940;BME280;4015;48.888;9.226;2023-04-16T03:37:41;157236.09;;;7.92;100.00
7940;BME280;4015;48.888;9.226;2023-04-16T03:40:07;157246.25;;;7.96;100.00
7940;BME280;4015;48.888;9.226;2023-04-16T03:42:32;157241.19;;;7.94;100.00
7940;BME280;4015;48.888;9.226;2023-04-16T03:44:57;157218.19;;;7.85;100.00
7940;BME280;4015;48.888;9.226;2023-04-16T03:47:23;157224.59;;;7.88;100.00
7940;BME280;4015;48.888;9.226;2023-04-16T03:49:48;157241.19;;;7.94;100.00
7940;BME280;4015;48.888;9.226;2023-04-16T03:52:15;157246.25;;;7.96;100.00
7940;BME280;4015;48.888;9.226;2023-04-16T03:54:40;157214.38;;;7.83;100.00
7940;BME280;4015;48.888;9.226;2023-04-16T03:57:05;157224.59;;;7.88;100.00
7940;BME280;4015;48.888;9.226;2023-04-16T03:59:30;157224.59;;;7.88;100.00
7940;BME280;4015;48.888;9.226;2023-04-16T04:01:56;157222.06;;;7.87;100.00
7940;BME280;4015;48.888;9.226;2023-04-16T04:04:21;157213.13;;;7.83;100.00
7940;BME280;4015;48.888;9.226;2023-04-16T04:06:47;157213.13;;;7.83;100.00
7940;BME280;4015;48.888;9.226;2023-04-16T04:09:13;157214.38;;;7.83;100.00
7940;BME280;4015;48.888;9.226;2023-04-16T04:11:39;157214.38;;;7.83;100.00
7940;BME280;4015;48.888;9.226;2023-04-16T04:14:04;157204.22;;;7.79;100.00
7940;BME280;4015;48.888;9.226;2023-04-16T04:16:33;157208.03;;;7.81;100.00
7940;BME280;4015;48.888;9.226;2023-04-16T04:18:58;157233.50;;;7.91;100.00
7940;BME280;4015;48.888;9.226;2023-04-16T04:21:25;157227.16;;;7.89;100.00
7940;BME280;4015;48.888;9.226;2023-04-16T04:23:51;157223.31;;;7.87;100.00
7940;BME280;4015;48.888;9.226;2023-04-16T04:26:16;157238.63;;;7.93;100.00
7940;BME280;4015;48.888;9.226;2023-04-16T04:28:42;157216.94;;;7.84;100.00
7940;BME280;4015;48.888;9.226;2023-04-16T04:31:07;157224.59;;;7.88;100.00
7940;BME280;4015;48.888;9.226;2023-04-16T04:33:32;157197.81;;;7.77;100.00
7940;BME280;4015;48.888;9.226;2023-04-16T04:35:57;157196.53;;;7.76;100.00
7940;BME280;4015;48.888;9.226;2023-04-16T04:38:23;157202.91;;;7.79;100.00
7940;BME280;4015;48.888;9.226;2023-04-16T04:40:52;157216.94;;;7.84;100.00
7940;BME280;4015;48.888;9.226;2023-04-16T04:43:18;157211.84;;;7.82;100.00
7940;BME280;4015;48.888;9.226;2023-04-16T04:45:44;157205.47;;;7.80;100.00
7940;BME280;4015;48.888;9.226;2023-04-16T04:48:10;157213.13;;;7.83;100.00
7940;BME280;4015;48.888;9.226;2023-04-16T04:50:35;157211.84;;;7.82;100.00
7940;BME280;4015;48.888;9.226;2023-04-16T04:53:01;157201.63;;;7.78;100.00
7940;BME280;4015;48.888;9.226;2023-04-16T04:55:26;157194.00;;;7.75;100.00
7940;BME280;4015;48.888;9.226;2023-04-16T04:57:51;157202.91;;;7.79;100.00
7940;BME280;4015;48.888;9.226;2023-04-16T05:00:17;157215.66;;;7.84;100.00
7940;BME280;4015;48.888;9.226;2023-04-16T05:02:42;157225.88;;;7.88;100.00
7940;BME280;4015;48.888;9.226;2023-04-16T05:05:08;157224.59;;;7.88;100.00
7940;BME280;4015;48.888;9.226;2023-04-16T05:07:33;157208.03;;;7.81;100.00
7940;BME280;4015;48.888;9.226;2023-04-16T05:09:58;157224.59;;;7.88;100.00
7940;BME280;4015;48.888;9.226;2023-04-16T05:12:23;157204.22;;;7.79;100.00
7940;BME280;4015;48.888;9.226;2023-04-16T05:14:49;157213.13;;;7.83;100.00
7940;BME280;4015;48.888;9.226;2023-04-16T05:17:14;157178.69;;;7.69;100.00
7940;BME280;4015;48.888;9.226;2023-04-16T05:19:40;157179.97;;;7.70;100.00
7940;BME280;4015;48.888;9.226;2023-04-16T05:22:05;157183.78;;;7.71;100.00
7940;BME280;4015;48.888;9.226;2023-04-16T05:24:31;157202.91;;;7.79;100.00
7940;BME280;4015;48.888;9.226;2023-04-16T05:26:56;157208.03;;;7.81;100.00
7940;BME280;4015;48.888;9.226;2023-04-16T05:29:22;157220.78;;;7.86;100.00
7940;BME280;4015;48.888;9.226;2023-04-16T05:31:47;157234.78;;;7.92;100.00
7940;BME280;4015;48.888;9.226;2023-04-16T05:34:12;157243.72;;;7.95;100.00
7940;BME280;4015;48.888;9.226;2023-04-16T05:36:38;157224.59;;;7.88;100.00
7940;BME280;4015;48.888;9.226;2023-04-16T05:39:03;157220.78;;;7.86;100.00
7940;BME280;4015;48.888;9.226;2023-04-16T05:41:28;157220.78;;;7.86;100.00
7940;BME280;4015;48.888;9.226;2023-04-16T05:43:54;157204.22;;;7.79;100.00
7940;BME280;4015;48.888;9.226;2023-04-16T05:46:19;157223.31;;;7.87;100.00
7940;BME280;4015;48.888;9.226;2023-04-16T05:48:45;157215.66;;;7.84;100.00
7940;BME280;4015;48.888;9.226;2023-04-16T05:51:10;157228.41;;;7.89;100.00
7940;BME280;4015;48.888;9.226;2023-04-16T05:53:36;157225.88;;;7.88;100.00
7940;BME280;4015;48.888;9.226;2023-04-16T05:56:01;157228.41;;;7.89;100.00
7940;BME280;4015;48.888;9.226;2023-04-16T05:58:27;157242.44;;;7.95;100.00
7940;BME280;4015;48.888;9.226;2023-04-16T06:00:52;157237.34;;;7.93;100.00
7940;BME280;4015;48.888;9.226;2023-04-16T06:03:17;157241.19;;;7.94;100.00
7940;BME280;4015;48.888;9.226;2023-04-16T06:05:43;157245.00;;;7.96;100.00
7940;BME280;4015;48.888;9.226;2023-04-16T06:08:08;157245.00;;;7.96;100.00
7940;BME280;4015;48.888;9.226;2023-04-16T06:10:34;157259.03;;;8.01;100.00
7940;BME280;4015;48.888;9.226;2023-04-16T06:12:59;157261.56;;;8.02;100.00
7940;BME280;4015;48.888;9.226;2023-04-16T06:15:25;157251.38;;;7.98;100.00
7940;BME280;4015;48.888;9.226;2023-04-16T06:17:50;157269.25;;;8.05;100.00
7940;BME280;4015;48.888;9.226;2023-04-16T06:20:15;157283.28;;;8.11;100.00
7940;BME280;4015;48.888;9.226;2023-04-16T06:22:41;157261.56;;;8.02;100.00
7940;BME280;4015;48.888;9.226;2023-04-16T06:25:06;157261.56;;;8.02;100.00
7940;BME280;4015;48.888;9.226;2023-04-16T06:27:32;157267.97;;;8.05;100.00
7940;BME280;4015;48.888;9.226;2023-04-16T06:29:57;157262.84;;;8.03;100.00
7940;BME280;4015;48.888;9.226;2023-04-16T06:32:23;157259.03;;;8.01;100.00
7940;BME280;4015;48.888;9.226;2023-04-16T06:34:49;157234.78;;;7.92;100.00
7940;BME280;4015;48.888;9.226;2023-04-16T06:37:14;157278.13;;;8.09;100.00
7940;BME280;4015;48.888;9.226;2023-04-16T06:39:40;157267.97;;;8.05;100.00
7940;BME280;4015;48.888;9.226;2023-04-16T06:42:05;157288.34;;;8.13;100.00
7940;BME280;4015;48.888;9.226;2023-04-16T06:44:32;157274.31;;;8.07;100.00
7940;BME280;4015;48.888;9.226;2023-04-16T06:46:57;157284.53;;;8.11;100.00
7940;BME280;4015;48.888;9.226;2023-04-16T06:49:22;157279.41;;;8.09;100.00
7940;BME280;4015;48.888;9.226;2023-04-16T06:51:48;157294.72;;;8.16;100.00
7940;BME280;4015;48.888;9.226;2023-04-16T06:54:13;157294.72;;;8.16;100.00
7940;BME280;4015;48.888;9.226;2023-04-16T06:56:38;157288.34;;;8.13;100.00
7940;BME280;4015;48.888;9.226;2023-04-16T06:59:04;157307.47;;;8.21;100.00
7940;BME280;4015;48.888;9.226;2023-04-16T07:01:29;157304.94;;;8.20;100.00
7940;BME280;4015;48.888;9.226;2023-04-16T07:03:57;157307.47;;;8.21;100.00
7940;BME280;4015;48.888;9.226;2023-04-16T07:06:23;157290.91;;;8.14;100.00
7940;BME280;4015;48.888;9.226;2023-04-16T07:08:48;157292.16;;;8.15;100.00
7940;BME280;4015;48.888;9.226;2023-04-16T07:11:14;157312.56;;;8.23;100.00
7940;BME280;4015;48.888;9.226;2023-04-16T07:13:39;157322.78;;;8.27;100.00
7940;BME280;4015;48.888;9.226;2023-04-16T07:16:05;157345.81;;;8.36;100.00
7940;BME280;4015;48.888;9.226;2023-04-16T07:18:30;157339.38;;;8.33;100.00
7940;BME280;4015;48.888;9.226;2023-04-16T07:20:56;157335.56;;;8.32;100.00
7940;BME280;4015;48.888;9.226;2023-04-16T07:23:21;157344.50;;;8.35;100.00
7940;BME280;4015;48.888;9.226;2023-04-16T07:25:47;157359.81;;;8.42;100.00
7940;BME280;4015;48.888;9.226;2023-04-16T07:28:12;157361.06;;;8.42;100.00
7940;BME280;4015;48.888;9.226;2023-04-16T07:30:38;157358.53;;;8.41;100.00
7940;BME280;4015;48.888;9.226;2023-04-16T07:33:03;157339.38;;;8.33;100.00
7940;BME280;4015;48.888;9.226;2023-04-16T07:35:29;157327.88;;;8.29;100.00
7940;BME280;4015;48.888;9.226;2023-04-16T07:37:55;157344.50;;;8.35;100.00
7940;BME280;4015;48.888;9.226;2023-04-16T07:40:20;157325.34;;;8.28;100.00
7940;BME280;4015;48.888;9.226;2023-04-16T07:42:45;157349.63;;;8.37;100.00
7940;BME280;4015;48.888;9.226;2023-04-16T07:45:11;157352.19;;;8.38;100.00
7940;BME280;4015;48.888;9.226;2023-04-16T07:47:36;157373.84;;;8.47;100.00
7940;BME280;4015;48.888;9.226;2023-04-16T07:50:02;157413.41;;;8.63;100.00
7940;BME280;4015;48.888;9.226;2023-04-16T07:52:27;157430.00;;;8.70;100.00
7940;BME280;4015;48.888;9.226;2023-04-16T07:54:52;157421.03;;;8.66;100.00
7940;BME280;4015;48.888;9.226;2023-04-16T07:57:18;157424.91;;;8.68;100.00
7940;BME280;4015;48.888;9.226;2023-04-16T07:59:43;157405.72;;;8.60;100.00
7940;BME280;4015;48.888;9.226;2023-04-16T08:02:11;157409.59;;;8.61;100.00
7940;BME280;4015;48.888;9.226;2023-04-16T08:04:38;157417.22;;;8.64;100.00
7940;BME280;4015;48.888;9.226;2023-04-16T08:07:03;157378.97;;;8.49;100.00
7940;BME280;4015;48.888;9.226;2023-04-16T08:09:29;157386.59;;;8.52;100.00
7940;BME280;4015;48.888;9.226;2023-04-16T08:11:54;157401.91;;;8.58;100.00
7940;BME280;4015;48.888;9.226;2023-04-16T08:14:20;157381.53;;;8.50;100.00
7940;BME280;4015;48.888;9.226;2023-04-16T08:16:45;157400.66;;;8.58;100.00
7940;BME280;4015;48.888;9.226;2023-04-16T08:19:11;157405.72;;;8.60;100.00
7940;BME280;4015;48.888;9.226;2023-04-16T08:21:36;157415.97;;;8.64;100.00
7940;BME280;4015;48.888;9.226;2023-04-16T08:24:02;157440.22;;;8.74;99.91
7940;BME280;4015;48.888;9.226;2023-04-16T08:26:27;157486.09;;;8.92;99.02
7940;BME280;4015;48.888;9.226;2023-04-16T08:28:52;157519.34;;;9.05;99.35
7940;BME280;4015;48.888;9.226;2023-04-16T08:31:17;157489.97;;;8.94;98.72
7940;BME280;4015;48.888;9.226;2023-04-16T08:33:43;157477.19;;;8.88;99.54
7940;BME280;4015;48.888;9.226;2023-04-16T08:36:08;157470.78;;;8.86;99.47
7940;BME280;4015;48.888;9.226;2023-04-16T08:38:33;157446.59;;;8.76;99.74
7940;BME280;4015;48.888;9.226;2023-04-16T08:41:02;157449.13;;;8.77;99.81
7940;BME280;4015;48.888;9.226;2023-04-16T08:43:32;157442.75;;;8.75;99.33
7940;BME280;4015;48.888;9.226;2023-04-16T08:45:59;157472.13;;;8.86;99.84
7940;BME280;4015;48.888;9.226;2023-04-16T08:48:31;157481.03;;;8.90;98.95
7940;BME280;4015;48.888;9.226;2023-04-16T08:50:59;157461.88;;;8.82;99.01
7940;BME280;4015;48.888;9.226;2023-04-16T08:53:35;157507.81;;;9.01;98.98
7940;BME280;4015;48.888;9.226;2023-04-16T08:56:08;157537.19;;;9.12;98.92
7940;BME280;4015;48.888;9.226;2023-04-16T08:58:36;157567.81;;;9.25;99.62
7940;BME280;4015;48.888;9.226;2023-04-16T09:01:02;157543.56;;;9.15;97.04
7940;BME280;4015;48.888;9.226;2023-04-16T09:03:31;157514.19;;;9.03;97.65
7940;BME280;4015;48.888;9.226;2023-04-16T09:05:57;157509.09;;;9.01;98.84
7940;BME280;4015;48.888;9.226;2023-04-16T09:08:28;157521.88;;;9.06;98.23
7940;BME280;4015;48.888;9.226;2023-04-16T09:10:55;157505.28;;;9.00;98.28
7940;BME280;4015;48.888;9.226;2023-04-16T09:13:21;157534.66;;;9.11;99.23
7940;BME280;4015;48.888;9.226;2023-04-16T09:15:51;157525.69;;;9.08;99.04
7940;BME280;4015;48.888;9.226;2023-04-16T09:18:17;157534.66;;;9.11;97.76
7940;BME280;4015;48.888;9.226;2023-04-16T09:20:42;157529.50;;;9.09;98.26
7940;BME280;4015;48.888;9.226;2023-04-16T09:23:08;157544.81;;;9.15;98.81
7940;BME280;4015;48.888;9.226;2023-04-16T09:25:35;157572.91;;;9.27;98.02
7940;BME280;4015;48.888;9.226;2023-04-16T09:28:01;157588.22;;;9.33;98.10
7940;BME280;4015;48.888;9.226;2023-04-16T09:30:27;157572.91;;;9.27;98.13
7940;BME280;4015;48.888;9.226;2023-04-16T09:33:12;157557.59;;;9.21;97.04
7940;BME280;4015;48.888;9.226;2023-04-16T09:35:44;157570.38;;;9.26;97.89
7940;BME280;4015;48.888;9.226;2023-04-16T09:38:10;157583.13;;;9.31;97.43
7940;BME280;4015;48.888;9.226;2023-04-16T09:40:35;157555.06;;;9.19;97.62
7940;BME280;4015;48.888;9.226;2023-04-16T09:43:09;157552.50;;;9.18;98.11
7940;BME280;4015;48.888;9.226;2023-04-16T09:45:53;157563.97;;;9.23;98.93
7940;BME280;4015;48.888;9.226;2023-04-16T09:48:32;157569.09;;;9.25;99.46
7940;BME280;4015;48.888;9.226;2023-04-16T09:50:59;157580.53;;;9.30;100.00
7940;BME280;4015;48.888;9.226;2023-04-16T09:53:27;157535.91;;;9.12;99.39
7940;BME280;4015;48.888;9.226;2023-04-16T09:56:01;157571.63;;;9.26;100.00
7940;BME280;4015;48.888;9.226;2023-04-16T09:58:27;157555.06;;;9.19;100.00
7940;BME280;4015;48.888;9.226;2023-04-16T10:03:32;157504.00;;;8.99;100.00
7940;BME280;4015;48.888;9.226;2023-04-16T10:06:13;157537.19;;;9.12;100.00
7940;BME280;4015;48.888;9.226;2023-04-16T10:08:52;157543.56;;;9.15;99.96
7940;BME280;4015;48.888;9.226;2023-04-16T10:11:19;157515.47;;;9.04;100.00
7940;BME280;4015;48.888;9.226;2023-04-16T10:13:45;157553.78;;;9.19;100.00
7940;BME280;4015;48.888;9.226;2023-04-16T10:16:11;157506.56;;;9.00;100.00
7940;BME280;4015;48.888;9.226;2023-04-16T10:18:39;157502.69;;;8.99;100.00
7940;BME280;4015;48.888;9.226;2023-04-16T10:21:04;157535.91;;;9.12;100.00
7940;BME280;4015;48.888;9.226;2023-04-16T10:23:33;157514.19;;;9.03;100.00
7940;BME280;4015;48.888;9.226;2023-04-16T10:26:00;157523.16;;;9.07;100.00
7940;BME280;4015;48.888;9.226;2023-04-16T10:28:26;157557.59;;;9.21;100.00
7940;BME280;4015;48.888;9.226;2023-04-16T10:30:56;157567.81;;;9.25;100.00
7940;BME280;4015;48.888;9.226;2023-04-16T10:33:23;157566.53;;;9.24;99.46
7940;BME280;4015;48.888;9.226;2023-04-16T10:35:50;157516.72;;;9.04;99.27
7940;BME280;4015;48.888;9.226;2023-04-16T10:38:25;157500.16;;;8.98;99.65
7940;BME280;4015;48.888;9.226;2023-04-16T10:40:58;157505.28;;;9.00;100.00
7940;BME280;4015;48.888;9.226;2023-04-16T10:43:24;157501.41;;;8.98;100.00
7940;BME280;4015;48.888;9.226;2023-04-16T10:45:49;157511.66;;;9.02;100.00
7940;BME280;4015;48.888;9.226;2023-04-16T10:48:17;157566.53;;;9.24;100.00
7940;BME280;4015;48.888;9.226;2023-04-16T10:50:53;157532.06;;;9.10;100.00
7940;BME280;4015;48.888;9.226;2023-04-16T10:53:22;157537.19;;;9.12;100.00
7940;BME280;4015;48.888;9.226;2023-04-16T10:58:30;157552.50;;;9.18;100.00
7940;BME280;4015;48.888;9.226;2023-04-16T11:01:00;157551.22;;;9.18;100.00
7940;BME280;4015;48.888;9.226;2023-04-16T11:03:29;157562.69;;;9.23;100.00
7940;BME280;4015;48.888;9.226;2023-04-16T11:06:13;157572.91;;;9.27;100.00
7940;BME280;4015;48.888;9.226;2023-04-16T11:08:39;157556.31;;;9.20;100.00
7940;BME280;4015;48.888;9.226;2023-04-16T11:11:05;157557.59;;;9.21;100.00
7940;BME280;4015;48.888;9.226;2023-04-16T11:13:31;157551.22;;;9.18;100.00
7940;BME280;4015;48.888;9.226;2023-04-16T11:15:57;157557.59;;;9.21;100.00
7940;BME280;4015;48.888;9.226;2023-04-16T11:18:23;157556.31;;;9.20;100.00
7940;BME280;4015;48.888;9.226;2023-04-16T11:20:50;157534.66;;;9.11;100.00
7940;BME280;4015;48.888;9.226;2023-04-16T11:23:15;157535.91;;;9.12;100.00
7940;BME280;4015;48.888;9.226;2023-04-16T11:25:41;157549.91;;;9.17;100.00
7940;BME280;4015;48.888;9.226;2023-04-16T11:28:06;157561.41;;;9.22;100.00
7940;BME280;4015;48.888;9.226;2023-04-16T11:30:33;157543.56;;;9.15;100.00
7940;BME280;4015;48.888;9.226;2023-04-16T11:33:01;157511.66;;;9.02;100.00
7940;BME280;4015;48.888;9.226;2023-04-16T11:35:27;157525.69;;;9.08;100.00
7940;BME280;4015;48.888;9.226;2023-04-16T11:37:56;157492.50;;;8.95;100.00
7940;BME280;4015;48.888;9.226;2023-04-16T11:40:22;157489.97;;;8.94;100.00
7940;BME280;4015;48.888;9.226;2023-04-16T11:42:47;157525.69;;;9.08;100.00
7940;BME280;4015;48.888;9.226;2023-04-16T11:45:13;157521.88;;;9.06;100.00
7940;BME280;4015;48.888;9.226;2023-04-16T11:47:49;157516.72;;;9.04;100.00
7940;BME280;4015;48.888;9.226;2023-04-16T11:50:28;157528.25;;;9.09;100.00
7940;BME280;4015;48.888;9.226;2023-04-16T11:52:55;157543.56;;;9.15;100.00
7940;BME280;4015;48.888;9.226;2023-04-16T11:55:21;157551.22;;;9.18;100.00
7940;BME280;4015;48.888;9.226;2023-04-16T11:57:47;157575.44;;;9.28;100.00
7940;BME280;4015;48.888;9.226;2023-04-16T12:00:13;157566.53;;;9.24;100.00
7940;BME280;4015;48.888;9.226;2023-04-16T12:02:42;157565.22;;;9.24;100.00
7940;BME280;4015;48.888;9.226;2023-04-16T12:05:30;157551.22;;;9.18;100.00
7940;BME280;4015;48.888;9.226;2023-04-16T12:07:57;157533.31;;;9.11;100.00
7940;BME280;4015;48.888;9.226;2023-04-16T12:10:22;157542.28;;;9.14;100.00
7940;BME280;4015;48.888;9.226;2023-04-16T12:12:48;157579.28;;;9.29;100.00
7940;BME280;4015;48.888;9.226;2023-04-16T12:15:13;157579.28;;;9.29;100.00
7940;BME280;4015;48.888;9.226;2023-04-16T12:17:39;157555.06;;;9.19;100.00
7940;BME280;4015;48.888;9.226;2023-04-16T12:20:10;157583.13;;;9.31;100.00
7940;BME280;4015;48.888;9.226;2023-04-16T12:22:38;157590.78;;;9.34;100.00
7940;BME280;4015;48.888;9.226;2023-04-16T12:25:10;157595.84;;;9.36;100.00
7940;BME280;4015;48.888;9.226;2023-04-16T12:27:53;157604.81;;;9.39;100.00
7940;BME280;4015;48.888;9.226;2023-04-16T12:30:23;157571.63;;;9.26;100.00
7940;BME280;4015;48.888;9.226;2023-04-16T12:32:52;157601.00;;;9.38;100.00
7940;BME280;4015;48.888;9.226;2023-04-16T12:35:32;157611.19;;;9.42;100.00
7940;BME280;4015;48.888;9.226;2023-04-16T12:37:58;157594.59;;;9.35;100.00
7940;BME280;4015;48.888;9.226;2023-04-16T12:40:23;157595.84;;;9.36;100.00
7940;BME280;4015;48.888;9.226;2023-04-16T12:42:49;157581.88;;;9.30;100.00
7940;BME280;4015;48.888;9.226;2023-04-16T12:45:14;157602.28;;;9.38;99.94
7940;BME280;4015;48.888;9.226;2023-04-16T12:47:40;157602.28;;;9.38;100.00
7940;BME280;4015;48.888;9.226;2023-04-16T12:50:06;157626.50;;;9.48;100.00
7940;BME280;4015;48.888;9.226;2023-04-16T12:52:33;157585.69;;;9.32;100.00
7940;BME280;4015;48.888;9.226;2023-04-16T12:54:58;157562.69;;;9.23;100.00
7940;BME280;4015;48.888;9.226;2023-04-16T12:57:25;157574.19;;;9.27;100.00
7940;BME280;4015;48.888;9.226;2023-04-16T12:59:54;157585.69;;;9.32;100.00
7940;BME280;4015;48.888;9.226;2023-04-16T13:02:20;157607.34;;;9.40;100.00
7940;BME280;4015;48.888;9.226;2023-04-16T13:04:45;157599.72;;;9.37;100.00
7940;BME280;4015;48.888;9.226;2023-04-16T13:07:10;157611.19;;;9.42;100.00
7940;BME280;4015;48.888;9.226;2023-04-16T13:09:36;157632.91;;;9.51;100.00
7940;BME280;4015;48.888;9.226;2023-04-16T13:12:01;157664.81;;;9.63;99.97
7940;BME280;4015;48.888;9.226;2023-04-16T13:14:26;157640.53;;;9.54;99.69